CW8541 Weather Reports


Display with metric or nautical units.
time (UTC)temp
F
wind
direction
speed
MPH
gust
MPH
rain 1hr
in
rain 24hr
in
rain mn
in
humidity
%
barometer
mb
20180918225530 99 220 10.0 0.0 0.00 0.00 0.00 6 1001.8
20180918225450 100 250 8.0 0.0 0.00 0.00 0.00 5 1002.2
20180918224950 100 247 9.0 0.0 0.00 0.00 0.00 6 1001.8
20180918224452 100 188 8.0 0.0 0.00 0.00 0.00 4 1002.3
20180918223952 101 233 6.0 0.0 0.00 0.00 0.00 4 1002.1
20180918223453 100 256 11.0 0.0 0.00 0.00 0.00 6 1002.0
20180918222953 100 304 5.0 0.0 0.00 0.00 0.00 3 1002.1
20180918222453 100 239 8.0 0.0 0.00 0.00 0.00 6 1002.4
20180918221956 100 159 3.0 0.0 0.00 0.00 0.00 6 1002.1
20180918221458 100 255 7.0 0.0 0.00 0.00 0.00 3 1002.6
20180918221004 99 220 9.0 0.0 0.00 0.00 0.00 4 1002.4
20180918220506 101 233 7.0 0.0 0.00 0.00 0.00 4 1002.2
20180918220007 100 236 7.0 0.0 0.00 0.00 0.00 4 1002.5
20180918215507 100 244 7.0 0.0 0.00 0.00 0.00 6 1002.3
20180918215008 100 231 4.0 0.0 0.00 0.00 0.00 4 1002.6
20180918214509 101 238 5.0 0.0 0.00 0.00 0.00 4 1002.3
20180918214507 101 241 5.0 0.0 0.00 0.00 0.00 4 1002.1
20180918214003 99 245 7.0 0.0 0.00 0.00 0.00 4 1002.8
20180918213533 101 239 4.0 0.0 0.00 0.00 0.00 4 1002.8
20180918213454 101 270 5.0 0.0 0.00 0.00 0.00 4 1002.9
20180918212955 99 186 11.0 0.0 0.00 0.00 0.00 4 1002.8
20180918212458 99 222 8.0 0.0 0.00 0.00 0.00 3 1003.2
20180918212004 101 245 4.0 0.0 0.00 0.00 0.00 5 1002.9
20180918211508 99 214 12.0 0.0 0.00 0.00 0.00 5 1003.2
20180918211007 101 215 6.0 0.0 0.00 0.00 0.00 4 1003.1
20180918210507 101 224 8.0 0.0 0.00 0.00 0.00 5 1002.9
20180918210008 99 239 10.0 0.0 0.00 0.00 0.00 6 1003.0
20180918205508 99 185 7.0 0.0 0.00 0.00 0.00 4 1003.2
20180918205110 99 188 11.0 0.0 0.00 0.00 0.00 4 1003.2
20180918205008 99 246 14.0 0.0 0.00 0.00 0.00 4 1003.6
20180918204507 100 226 8.0 0.0 0.00 0.00 0.00 5 1003.1
20180918204027 101 177 6.0 0.0 0.00 0.00 0.00 4 1003.2
20180918204007 101 246 5.0 0.0 0.00 0.00 0.00 4 1003.3
20180918203508 100 240 7.0 0.0 0.00 0.00 0.00 4 1003.1
20180918203007 101 238 6.0 0.0 0.00 0.00 0.00 5 1003.3
20180918202508 99 197 11.0 0.0 0.00 0.00 0.00 4 1003.4
20180918202007 97 200 6.0 0.0 0.00 0.00 0.00 6 1003.8
20180918201609 99 183 5.0 0.0 0.00 0.00 0.00 6 1003.9
20180918201504 100 225 10.0 0.0 0.00 0.00 0.00 6 1003.7
20180918201027 102 264 3.0 0.0 0.00 0.00 0.00 4 1003.8
20180918200957 99 215 10.0 0.0 0.00 0.00 0.00 4 1003.9
20180918200609 102 241 2.0 0.0 0.00 0.00 0.00 6 1004.2
20180918200455 99 208 7.0 0.0 0.00 0.00 0.00 5 1004.1
20180918195957 99 146 7.0 0.0 0.00 0.00 0.00 6 1003.8
20180918195500 98 198 9.0 0.0 0.00 0.00 0.00 5 1004.0
20180918195007 98 187 9.0 0.0 0.00 0.00 0.00 5 1004.1
20180918194507 98 237 7.0 0.0 0.00 0.00 0.00 5 1004.0
20180918194007 100 266 5.0 0.0 0.00 0.00 0.00 4 1004.5
20180918193507 100 258 4.0 0.0 0.00 0.00 0.00 6 1004.3
20180918193006 99 245 5.0 0.0 0.00 0.00 0.00 5 1004.1
20180918192507 98 226 6.0 0.0 0.00 0.00 0.00 6 1004.4
20180918192007 97 235 8.0 0.0 0.00 0.00 0.00 6 1004.7
20180918191507 98 170 7.0 0.0 0.00 0.00 0.00 6 1004.9
20180918191007 98 275 4.0 0.0 0.00 0.00 0.00 6 1004.9
20180918190506 99 203 3.0 0.0 0.00 0.00 0.00 6 1004.8
20180918190007 96 244 8.0 0.0 0.00 0.00 0.00 5 1005.0
20180918185507 95 202 7.0 0.0 0.00 0.00 0.00 5 1005.1
20180918185007 96 202 7.0 0.0 0.00 0.00 0.00 5 1005.2
20180918184506 98 251 6.0 0.0 0.00 0.00 0.00 6 1005.0
20180918184007 97 233 6.0 0.0 0.00 0.00 0.00 4 1005.1
20180918183506 97 240 7.0 0.0 0.00 0.00 0.00 6 1005.1
20180918183007 96 210 7.0 0.0 0.00 0.00 0.00 6 1005.3
20180918182507 95 218 7.0 0.0 0.00 0.00 0.00 7 1005.3
20180918182008 96 237 6.0 0.0 0.00 0.00 0.00 5 1005.5
20180918181508 97 154 5.0 0.0 0.00 0.00 0.00 6 1005.8
20180918181007 96 216 6.0 0.0 0.00 0.00 0.00 6 1005.9
20180918180507 98 232 2.0 0.0 0.00 0.00 0.00 6 1005.6
20180918180007 95 202 5.0 0.0 0.00 0.00 0.00 5 1006.1
20180918175507 95 165 4.0 0.0 0.00 0.00 0.00 6 1005.9
20180918175007 95 216 5.0 0.0 0.00 0.00 0.00 5 1005.9
20180918174507 94 214 6.0 0.0 0.00 0.00 0.00 5 1005.9
20180918174007 96 240 3.0 0.0 0.00 0.00 0.00 5 1006.3
20180918173648 97 243 4.0 0.0 0.00 0.00 0.00 5 1006.1
20180918173143 95 200 1.0 0.0 0.00 0.00 0.00 4 1006.3
20180918172007 95 215 5.0 0.0 0.00 0.00 0.00 6 1006.2
20180918171507 95 238 5.0 0.0 0.00 0.00 0.00 6 1006.4
20180918171006 96 249 2.0 0.0 0.00 0.00 0.00 5 1006.5
20180918170506 93 189 5.0 0.0 0.00 0.00 0.00 7 1006.3
20180918170007 94 219 5.0 0.0 0.00 0.00 0.00 5 1006.6
20180918165507 94 185 5.0 0.0 0.00 0.00 0.00 5 1006.7
20180918165007 95 261 3.0 0.0 0.00 0.00 0.00 7 1006.6
20180918164507 94 220 3.0 0.0 0.00 0.00 0.00 6 1006.8
20180918164007 94 245 5.0 0.0 0.00 0.00 0.00 5 1006.5
20180918163507 93 144 8.0 0.0 0.00 0.00 0.00 5 1007.1
20180918163007 91 224 4.0 0.0 0.00 0.00 0.00 7 1007.0
20180918162507 93 253 4.0 0.0 0.00 0.00 0.00 5 1006.8
20180918162007 90 199 5.0 0.0 0.00 0.00 0.00 6 1006.7
20180918161508 91 324 5.0 0.0 0.00 0.00 0.00 5 1006.9
20180918161007 94 61 0.0 0.0 0.00 0.00 0.00 6 1006.9
20180918160507 91 143 2.0 0.0 0.00 0.00 0.00 6 1006.8
20180918160008 93 321 0.0 0.0 0.00 0.00 0.00 5 1007.2
20180918155507 92 290 0.0 0.0 0.00 0.00 0.00 5 1006.8
20180918155007 94 148 0.0 0.0 0.00 0.00 0.00 7 1007.1
20180918154507 91 139 0.0 0.0 0.00 0.00 0.00 6 1006.7
20180918154007 90 109 4.0 0.0 0.00 0.00 0.00 6 1006.9
20180918153507 92 105 0.0 0.0 0.00 0.00 0.00 6 1006.9
20180918153007 90 48 0.0 0.0 0.00 0.00 0.00 5 1007.1
20180918152507 89 96 0.0 0.0 0.00 0.00 0.00 5 1007.1
20180918152007 92 119 0.0 0.0 0.00 0.00 0.00 6 1007.3
20180918151507 89 120 0.0 0.0 0.00 0.00 0.00 7 1007.3
20180918151007 90 120 0.0 0.0 0.00 0.00 0.00 7 1007.1
20180918150506 87 120 0.0 0.0 0.00 0.00 0.00 8 1007.4
20180918150007 88 120 0.0 0.0 0.00 0.00 0.00 9 1007.2
20180918145507 87 134 0.0 0.0 0.00 0.00 0.00 11 1007.2
20180918145007 85 122 0.0 0.0 0.00 0.00 0.00 12 1007.4
20180918144507 86 124 0.0 0.0 0.00 0.00 0.00 10 1007.3
20180918144007 85 95 0.0 0.0 0.00 0.00 0.00 11 1007.3
20180918143506 85 100 0.0 0.0 0.00 0.00 0.00 12 1007.3
20180918143006 84 117 0.0 0.0 0.00 0.00 0.00 12 1007.4
20180918142506 84 118 0.0 0.0 0.00 0.00 0.00 12 1007.2
20180918142007 83 106 2.0 0.0 0.00 0.00 0.00 14 1007.1
20180918141506 82 108 0.0 0.0 0.00 0.00 0.00 13 1007.3
20180918141006 82 102 0.0 0.0 0.00 0.00 0.00 16 1007.1
20180918140507 83 72 0.0 0.0 0.00 0.00 0.00 17 1007.2
20180918140106 81 72 0.0 0.0 0.00 0.00 0.00 18 1007.0
20180918004508 101 216 3.0 0.0 0.00 0.00 0.00 4 1001.5
20180918004007 100 252 4.0 0.0 0.00 0.00 0.00 4 1001.6
20180918003507 101 261 5.0 0.0 0.00 0.00 0.00 4 1002.0
20180918003006 101 226 8.0 0.0 0.00 0.00 0.00 4 1001.8
20180918002506 101 229 4.0 0.0 0.00 0.00 0.00 5 1001.8
20180918002007 102 242 5.0 0.0 0.00 0.00 0.00 6 1002.0
20180918001507 102 224 4.0 0.0 0.00 0.00 0.00 5 1002.0
20180918001008 102 259 5.0 0.0 0.00 0.00 0.00 5 1001.8
20180918000508 103 236 5.0 0.0 0.00 0.00 0.00 5 1001.6
20180918000007 102 240 9.0 0.0 0.00 0.00 0.00 5 1002.1
20180917235506 102 240 4.0 0.0 0.00 0.00 0.00 5 1001.9
20180917235007 103 241 5.0 0.0 0.00 0.00 0.00 5 1001.9
20180917234507 102 246 0.0 0.0 0.00 0.00 0.00 5 1002.0
20180917234007 103 225 0.0 0.0 0.00 0.00 0.00 4 1002.1
20180917233506 103 196 4.0 0.0 0.00 0.00 0.00 4 1002.1
20180917233007 104 209 0.0 0.0 0.00 0.00 0.00 5 1002.2
20180917232507 104 238 5.0 0.0 0.00 0.00 0.00 5 1002.1
20180917232007 103 175 3.0 0.0 0.00 0.00 0.00 5 1001.8
20180917231508 102 213 6.0 0.0 0.00 0.00 0.00 5 1001.9
20180917231007 104 233 3.0 0.0 0.00 0.00 0.00 5 1002.2
20180917230506 104 271 3.0 0.0 0.00 0.00 0.00 5 1002.1
20180917230005 102 189 6.0 0.0 0.00 0.00 0.00 6 1002.2